Addison, Alabama
Current Conditions -  °F | °C
As of 11:15 PM on Saturday 25 Oct 2014 (Local Time) from KCMD Reporting Station
Haze Haze  
Wind Chill: 58°   Ceiling: Unl
Heat Index: 58°   Visibility: 5mi
Dew Point: 57°   Wind: 0mph
Humidity: 98%   Direction: NA
Pressure: 30.09"   Gusts: NA
Location:  34.2°N, 87.18°W
Report Text: KCMD 260415Z AUTO 00000KT 5SM BR SCT040 14/14 A3009 RMK AO2 T01440141
Loading
Personal Weather Stations






























Interactive Weather Map New forecast layout! Learn more

10-Day Weather Forecast

Advertisements
Track Severe Weather on mobile